Time;durP1;ratioP1;P1;durP2;ratioP2;P2;SDS_P1;SDS_P2;PMS_P1;PMS_P2;Temp;Humidity;BMP_temperature;BMP_pressure;BME280_temperature;BME280_humidity;BME280_pressure;Samples;Min_cycle;Max_cycle;Signal;HPM_P1;HPM_P2
2023/05/04 00:00:36;;;;;;;26.38;20.95;;;;;;;10.45;100.00;93230.31;5127539;28;20044;-72
2023/05/04 00:03:03;;;;;;;27.38;23.20;;;;;;;10.51;100.00;93221.00;5127581;28;20052;-72
2023/05/04 00:05:32;;;;;;;26.20;20.70;;;;;;;10.56;100.00;93223.72;5127293;27;20043;-72
2023/05/04 00:07:59;;;;;;;26.15;21.02;;;;;;;10.51;100.00;93213.28;5131916;27;20043;-72
2023/05/04 00:10:26;;;;;;;25.05;19.65;;;;;;;10.25;100.00;93213.22;5131805;27;20070;-71
2023/05/04 00:12:53;;;;;;;23.98;19.58;;;;;;;10.14;100.00;93212.09;5132013;27;20057;-71
2023/05/04 00:15:20;;;;;;;22.15;18.88;;;;;;;10.15;100.00;93205.97;5131328;27;20052;-72
2023/05/04 00:17:47;;;;;;;25.20;20.40;;;;;;;10.19;100.00;93201.22;5129128;27;20051;-71
2023/05/04 00:20:14;;;;;;;26.30;20.92;;;;;;;9.99;100.00;93196.19;5128786;27;20120;-72
2023/05/04 00:22:42;;;;;;;25.17;20.63;;;;;;;9.95;100.00;93183.00;5113335;27;20047;-71
2023/05/04 00:25:09;;;;;;;26.27;21.00;;;;;;;9.79;100.00;93186.81;5130527;27;20064;-72
2023/05/04 00:27:35;;;;;;;26.27;21.05;;;;;;;9.85;100.00;93183.44;5130708;27;20047;-72
2023/05/04 00:30:02;;;;;;;26.35;22.50;;;;;;;9.78;100.00;93176.75;5108129;27;20048;-72
2023/05/04 00:32:29;;;;;;;24.90;21.33;;;;;;;9.70;100.00;93168.31;5128584;27;20043;-72
2023/05/04 00:34:56;;;;;;;26.58;20.92;;;;;;;9.83;100.00;93182.06;5131492;27;20418;-72
2023/05/04 00:37:23;;;;;;;24.08;21.10;;;;;;;9.82;100.00;93176.13;5131250;27;20070;-72
2023/05/04 00:39:51;;;;;;;25.10;19.95;;;;;;;9.79;100.00;93186.81;5131265;27;20495;-71
2023/05/04 00:42:18;;;;;;;26.08;19.05;;;;;;;9.94;100.00;93194.25;5130977;27;20043;-71
2023/05/04 00:44:45;;;;;;;25.17;19.83;;;;;;;10.00;100.00;93188.28;5116409;27;20040;-72
2023/05/04 00:47:12;;;;;;;27.02;21.80;;;;;;;10.14;100.00;93201.06;5114409;27;20441;-72
2023/05/04 00:49:39;;;;;;;27.27;22.33;;;;;;;10.21;100.00;93201.81;5131717;27;20096;-71
2023/05/04 00:52:07;;;;;;;26.33;21.60;;;;;;;10.19;100.00;93190.97;5131371;27;20043;-72
2023/05/04 00:54:34;;;;;;;28.42;22.70;;;;;;;10.31;100.00;93208.25;5130852;27;20054;-72
2023/05/04 00:57:03;;;;;;;28.90;22.70;;;;;;;10.35;100.00;93212.78;5131020;27;20104;-71
2023/05/04 00:59:30;;;;;;;31.98;24.05;;;;;;;10.41;100.00;93206.81;5130944;27;20112;-71
2023/05/04 01:01:57;;;;;;;28.13;23.10;;;;;;;10.42;100.00;93202.47;5130464;27;20054;-72
2023/05/04 01:04:23;;;;;;;33.13;23.92;;;;;;;10.53;100.00;93214.66;5130845;27;20043;-72
2023/05/04 01:06:58;;;;;;;29.23;23.65;;;;;;;10.62;100.00;93214.38;5130808;27;20441;-71
2023/05/04 01:09:34;;;;;;;29.50;22.80;;;;;;;10.66;100.00;93210.41;5130745;27;20103;-72
2023/05/04 01:12:06;;;;;;;31.38;24.35;;;;;;;10.62;100.00;93192.06;5130640;27;20392;-72
2023/05/04 01:14:35;;;;;;;30.40;24.20;;;;;;;10.62;100.00;93191.28;5130564;27;20099;-71
2023/05/04 01:17:04;;;;;;;28.88;23.13;;;;;;;10.62;100.00;93197.19;5128350;27;20072;-71
2023/05/04 01:19:34;;;;;;;32.40;24.10;;;;;;;10.65;100.00;93194.19;5129421;27;20499;-71
2023/05/04 01:22:02;;;;;;;33.40;24.50;;;;;;;10.66;100.00;93195.00;5130457;27;20114;-71
2023/05/04 01:24:31;;;;;;;31.50;24.73;;;;;;;10.66;100.00;93190.63;5130910;27;20438;-72
2023/05/04 01:27:04;;;;;;;31.60;23.80;;;;;;;10.67;100.00;93181.94;5129872;27;20469;-71
2023/05/04 01:29:38;;;;;;;28.90;23.77;;;;;;;10.68;100.00;93177.59;5129051;27;20066;-72
2023/05/04 01:32:06;;;;;;;30.55;23.70;;;;;;;10.67;100.00;93176.81;5130210;27;20047;-72
2023/05/04 01:34:34;;;;;;;30.45;23.42;;;;;;;10.67;100.00;93181.94;5130824;27;20092;-72
2023/05/04 01:37:02;;;;;;;33.08;23.85;;;;;;;10.68;100.00;93178.38;5130095;27;20051;-72
2023/05/04 01:39:29;;;;;;;28.55;22.55;;;;;;;10.67;100.00;93179.38;5123903;27;20050;-72
2023/05/04 01:41:56;;;;;;;27.50;21.92;;;;;;;10.67;100.00;93178.59;5127002;27;20134;-72
2023/05/04 01:44:23;;;;;;;32.78;26.48;;;;;;;10.59;100.00;93174.50;5129172;27;20051;-72
2023/05/04 01:46:50;;;;;;;31.60;23.75;;;;;;;10.62;100.00;93175.84;5115872;27;20070;-71
2023/05/04 01:49:16;;;;;;;30.17;23.25;;;;;;;10.56;100.00;93180.06;5130324;27;20051;-71
2023/05/04 01:51:45;;;;;;;31.40;23.45;;;;;;;10.41;100.00;93172.63;5129495;27;20047;-71
2023/05/04 01:54:13;;;;;;;31.27;24.95;;;;;;;10.34;100.00;93175.25;5130272;27;20044;-71
2023/05/04 01:56:40;;;;;;;34.13;24.77;;;;;;;10.32;100.00;93164.38;5129735;27;20047;-72
2023/05/04 01:59:07;;;;;;;31.80;23.27;;;;;;;10.05;100.00;93159.47;5129039;27;20058;-71
2023/05/04 02:01:33;;;;;;;32.65;24.70;;;;;;;9.96;100.00;93155.56;5129662;27;20047;-72
2023/05/04 02:04:00;;;;;;;33.67;24.98;;;;;;;9.79;100.00;93157.81;5129283;27;20050;-72
2023/05/04 02:06:27;;;;;;;35.13;25.58;;;;;;;9.59;100.00;93156.91;5129498;27;20056;-71
2023/05/04 02:08:54;;;;;;;36.28;26.20;;;;;;;9.43;100.00;93154.81;5129265;27;20054;-72
2023/05/04 02:11:22;;;;;;;33.22;25.90;;;;;;;9.55;100.00;93150.66;5129142;27;20058;-72
2023/05/04 02:13:49;;;;;;;32.70;25.65;;;;;;;9.65;100.00;93157.91;5128657;27;20047;-72
2023/05/04 02:16:16;;;;;;;34.00;26.10;;;;;;;9.74;100.00;93154.09;5127988;27;20063;-72
2023/05/04 02:18:42;;;;;;;37.10;26.63;;;;;;;9.69;100.00;93145.44;5128749;27;20135;-72
2023/05/04 02:21:09;;;;;;;38.65;29.88;;;;;;;9.86;100.00;93159.34;5129012;27;20095;-72
2023/05/04 02:23:36;;;;;;;34.28;25.95;;;;;;;9.93;100.00;93163.66;5127904;27;20055;-72
2023/05/04 02:26:02;;;;;;;36.30;25.80;;;;;;;9.95;100.00;93166.81;5128961;27;20075;-72
2023/05/04 02:28:31;;;;;;;29.63;24.10;;;;;;;9.99;100.00;93167.97;5127427;27;20078;-72
2023/05/04 02:30:58;;;;;;;31.20;25.63;;;;;;;10.02;100.00;93162.44;5129206;27;20065;-72
2023/05/04 02:33:25;;;;;;;33.30;26.58;;;;;;;10.10;100.00;93175.00;5129046;27;20058;-72
2023/05/04 02:35:51;;;;;;;30.42;24.45;;;;;;;10.15;100.00;93180.28;5129427;27;20039;-72
2023/05/04 02:38:18;;;;;;;29.00;23.60;;;;;;;10.21;100.00;93177.91;5128915;27;20043;-72
2023/05/04 02:40:45;;;;;;;30.08;23.42;;;;;;;10.26;100.00;93171.16;5128962;27;20486;-72
2023/05/04 02:43:12;;;;;;;30.67;24.00;;;;;;;10.33;100.00;93181.38;5128392;27;20604;-72
2023/05/04 02:45:40;;;;;;;30.10;23.88;;;;;;;10.36;100.00;93173.25;5128534;27;20238;-72
2023/05/04 02:48:07;;;;;;;29.60;23.17;;;;;;;10.41;100.00;93181.13;5128099;27;20491;-72
2023/05/04 02:50:33;;;;;;;30.45;23.88;;;;;;;10.41;100.00;93172.63;5129059;27;20054;-72
2023/05/04 02:53:00;;;;;;;32.28;25.15;;;;;;;10.48;100.00;93183.69;5128251;27;20047;-72
2023/05/04 02:55:27;;;;;;;33.97;26.02;;;;;;;10.41;100.00;93183.69;5129032;27;20051;-72
2023/05/04 02:57:55;;;;;;;30.23;23.42;;;;;;;10.26;100.00;93178.06;5125607;27;20043;-72
2023/05/04 03:00:22;;;;;;;33.97;25.42;;;;;;;10.14;100.00;93178.72;5113789;27;20051;-72
2023/05/04 03:02:50;;;;;;;29.95;25.02;;;;;;;10.12;100.00;93172.22;5128570;27;20067;-74
2023/05/04 03:05:17;;;;;;;29.13;23.98;;;;;;;10.09;100.00;93167.53;5128443;27;20514;-71
2023/05/04 03:07:44;;;;;;;30.33;24.05;;;;;;;10.17;100.00;93190.38;5128848;27;20051;-71
2023/05/04 03:10:10;;;;;;;31.10;25.02;;;;;;;10.20;100.00;93186.59;5128702;27;20047;-71
2023/05/04 03:12:37;;;;;;;31.08;23.08;;;;;;;10.26;100.00;93183.19;5127925;27;20054;-70
2023/05/04 03:15:05;;;;;;;29.40;23.92;;;;;;;10.29;100.00;93183.56;5128724;27;20051;-71
2023/05/04 03:17:31;;;;;;;30.25;23.95;;;;;;;10.29;100.00;93181.00;5097405;27;20131;-70
2023/05/04 03:20:00;;;;;;;31.23;24.67;;;;;;;10.31;100.00;93182.59;5117907;27;20051;-70
2023/05/04 03:22:27;;;;;;;31.98;25.25;;;;;;;10.31;100.00;93183.38;5128613;27;20452;-70
2023/05/04 03:24:54;;;;;;;30.48;24.00;;;;;;;10.34;100.00;93187.28;5128191;27;20051;-70
2023/05/04 03:27:21;;;;;;;35.22;27.05;;;;;;;10.35;100.00;93192.22;5128363;27;20047;-70
2023/05/04 03:29:48;;;;;;;34.88;27.77;;;;;;;10.39;100.00;93195.16;5128043;27;20417;-71
2023/05/04 03:32:14;;;;;;;38.13;26.75;;;;;;;10.41;100.00;93196.53;5128730;27;20572;-70
2023/05/04 03:34:41;;;;;;;31.50;24.95;;;;;;;10.43;100.00;93201.50;5128585;27;20104;-70
2023/05/04 03:37:09;;;;;;;30.25;24.35;;;;;;;10.44;100.00;93203.06;5128570;27;20115;-71
2023/05/04 03:39:36;;;;;;;32.78;25.50;;;;;;;10.36;100.00;93193.78;5127718;28;20475;-71
2023/05/04 03:42:03;;;;;;;35.38;26.65;;;;;;;10.42;100.00;93199.91;5133416;27;20516;-71
2023/05/04 03:44:30;;;;;;;33.67;25.55;;;;;;;10.40;100.00;93201.88;5135318;27;20047;-71
2023/05/04 03:46:57;;;;;;;30.60;24.83;;;;;;;10.42;100.00;93210.16;5134892;27;20108;-71
2023/05/04 03:49:24;;;;;;;33.13;24.58;;;;;;;10.35;100.00;93196.56;5134837;27;20824;-71
2023/05/04 03:51:50;;;;;;;32.45;25.52;;;;;;;10.39;100.00;93213.94;5135300;27;20058;-71
2023/05/04 03:54:18;;;;;;;33.75;25.92;;;;;;;10.37;100.00;93213.34;5134677;27;20050;-71
2023/05/04 03:56:45;;;;;;;32.45;26.23;;;;;;;10.40;100.00;93212.13;5135287;27;20548;-71
2023/05/04 03:59:12;;;;;;;31.30;24.77;;;;;;;10.33;100.00;93221.66;5135034;27;20104;-71
2023/05/04 04:01:39;;;;;;;40.15;29.85;;;;;;;10.28;100.00;93215.38;5131629;27;20457;-71
2023/05/04 04:04:05;;;;;;;34.95;26.23;;;;;;;10.21;100.00;93216.41;5135341;27;20043;-71
2023/05/04 04:06:32;;;;;;;32.40;24.27;;;;;;;10.24;100.00;93219.34;5130727;27;20075;-70
2023/05/04 04:08:59;;;;;;;35.35;24.63;;;;;;;10.22;100.00;93226.47;5125235;27;20054;-70
2023/05/04 04:11:27;;;;;;;32.05;24.67;;;;;;;10.32;100.00;93233.72;5134570;27;20484;-71
2023/05/04 04:13:54;;;;;;;30.00;24.40;;;;;;;10.36;100.00;93226.38;5134893;27;20047;-71
2023/05/04 04:16:21;;;;;;;36.00;24.40;;;;;;;10.39;100.00;93228.53;5135006;27;20368;-71
2023/05/04 04:18:48;;;;;;;36.92;24.75;;;;;;;10.43;100.00;93234.88;5134615;27;20141;-71
2023/05/04 04:21:14;;;;;;;31.98;24.75;;;;;;;10.48;100.00;93229.91;5134888;27;20047;-71
2023/05/04 04:23:41;;;;;;;31.98;24.25;;;;;;;10.52;100.00;93238.75;5134630;27;20425;-71
2023/05/04 04:26:09;;;;;;;32.42;24.02;;;;;;;10.58;100.00;93231.19;5134995;27;20046;-71
2023/05/04 04:28:37;;;;;;;28.67;23.20;;;;;;;10.61;100.00;93235.94;5135077;27;20058;-71
2023/05/04 04:31:04;;;;;;;27.58;22.02;;;;;;;10.64;100.00;93238.88;5134645;27;20047;-71
2023/05/04 04:33:31;;;;;;;26.73;21.27;;;;;;;10.64;100.00;93238.88;5134524;27;20096;-71
2023/05/04 04:35:57;;;;;;;23.15;18.55;;;;;;;10.65;100.00;93252.50;5134815;27;20047;-71
2023/05/04 04:38:25;;;;;;;23.98;18.13;;;;;;;10.66;100.00;93243.81;5134269;27;20043;-71
2023/05/04 04:40:51;;;;;;;23.42;16.30;;;;;;;10.66;100.00;93246.38;5134656;27;20605;-71
2023/05/04 04:43:18;;;;;;;21.73;16.35;;;;;;;10.65;100.00;93250.72;5127198;27;20100;-71
2023/05/04 04:45:46;;;;;;;19.15;15.75;;;;;;;10.62;100.00;93247.78;5114182;27;20155;-71
2023/05/04 04:48:13;;;;;;;16.48;12.95;;;;;;;10.64;100.00;93256.84;5134746;27;20123;-71
2023/05/04 04:50:40;;;;;;;13.55;10.82;;;;;;;10.42;100.00;93249.44;5134711;27;20043;-71
2023/05/04 04:53:06;;;;;;;14.95;11.88;;;;;;;10.41;100.00;93262.50;5131154;27;20055;-71
2023/05/04 04:55:34;;;;;;;14.30;11.30;;;;;;;10.28;100.00;93264.16;5131510;27;20543;-71
2023/05/04 04:58:01;;;;;;;17.10;12.98;;;;;;;10.14;100.00;93262.66;5131278;27;20524;-71
2023/05/04 05:00:27;;;;;;;16.65;12.30;;;;;;;10.17;100.00;93267.38;5131268;27;20087;-71
2023/05/04 05:02:56;;;;;;;14.55;11.93;;;;;;;10.14;100.00;93260.09;5131056;27;20329;-71
2023/05/04 05:05:22;;;;;;;14.07;12.50;;;;;;;9.96;100.00;93258.97;5131154;27;20043;-71
2023/05/04 05:07:49;;;;;;;16.05;12.85;;;;;;;10.05;100.00;93262.13;5130548;27;20088;-71
2023/05/04 05:10:16;;;;;;;14.73;12.65;;;;;;;10.05;100.00;93258.75;5130995;27;20059;-71
2023/05/04 05:12:43;;;;;;;14.57;12.57;;;;;;;10.14;100.00;93270.38;5130492;27;20053;-74
2023/05/04 05:15:10;;;;;;;17.60;13.50;;;;;;;10.19;100.00;93267.16;5131077;27;20215;-72
2023/05/04 05:17:38;;;;;;;16.27;13.18;;;;;;;10.31;100.00;93275.78;5130661;27;20503;-72
2023/05/04 05:20:10;;;;;;;13.77;12.02;;;;;;;10.35;100.00;93276.16;5130584;27;20422;-72
2023/05/04 05:22:37;;;;;;;16.05;12.13;;;;;;;10.39;100.00;93277.34;5130040;27;20039;-72
2023/05/04 05:25:04;;;;;;;17.05;12.70;;;;;;;10.31;100.00;93282.72;5130508;27;20043;-72
2023/05/04 05:27:31;;;;;;;14.82;11.27;;;;;;;10.39;100.00;93279.91;5130691;27;20049;-71
2023/05/04 05:29:58;;;;;;;16.02;12.30;;;;;;;10.46;100.00;93285.03;5103219;27;20074;-72
2023/05/04 05:32:24;;;;;;;17.45;12.48;;;;;;;10.56;100.00;93290.50;5130597;27;20105;-71
2023/05/04 05:34:52;;;;;;;14.23;12.10;;;;;;;10.60;100.00;93286.50;5130298;27;20039;-71
2023/05/04 05:37:20;;;;;;;16.20;13.23;;;;;;;10.66;100.00;93300.31;5116274;27;20044;-71
2023/05/04 05:39:47;;;;;;;17.17;13.73;;;;;;;10.72;100.00;93301.25;5130527;27;20070;-71
2023/05/04 05:42:14;;;;;;;15.38;12.40;;;;;;;10.77;100.00;93304.00;5129882;27;20441;-72
2023/05/04 05:44:41;;;;;;;18.15;13.38;;;;;;;10.81;100.00;93300.81;5130375;27;20123;-72
2023/05/04 05:47:07;;;;;;;16.02;12.85;;;;;;;10.85;100.00;93301.19;5130049;27;20495;-72
2023/05/04 05:49:34;;;;;;;14.07;11.65;;;;;;;10.89;100.00;93310.06;5129915;27;20051;-72
2023/05/04 05:52:01;;;;;;;17.75;12.32;;;;;;;10.91;100.00;93304.69;5129709;27;20050;-71
2023/05/04 05:54:29;;;;;;;16.23;13.30;;;;;;;10.96;100.00;93317.69;5129898;27;20430;-72
2023/05/04 05:56:56;;;;;;;16.38;12.68;;;;;;;10.98;100.00;93309.78;5129957;27;20043;-71
2023/05/04 05:59:23;;;;;;;17.80;13.63;;;;;;;11.01;100.00;93312.72;5127706;27;20104;-72
2023/05/04 06:01:50;;;;;;;16.35;12.75;;;;;;;10.99;100.00;93314.72;5129963;27;20058;-72
2023/05/04 06:04:16;;;;;;;16.85;12.60;;;;;;;10.99;100.00;93311.34;5102052;27;20118;-72
2023/05/04 06:06:43;;;;;;;31.27;23.48;;;;;;;11.00;100.00;93312.91;5129545;27;20082;-72
2023/05/04 06:09:10;;;;;;;19.98;16.50;;;;;;;10.82;100.00;93315.22;5129229;27;20046;-72
2023/05/04 06:11:38;;;;;;;15.77;12.45;;;;;;;10.54;100.00;93318.16;5129244;27;20130;-72
2023/05/04 06:14:05;;;;;;;17.65;13.48;;;;;;;10.51;100.00;93313.47;5129167;27;20066;-72
2023/05/04 06:16:32;;;;;;;18.60;14.80;;;;;;;10.50;100.00;93317.00;5129388;27;20047;-72
2023/05/04 06:18:59;;;;;;;19.02;15.38;;;;;;;10.33;100.00;93307.19;5128826;27;20043;-72
2023/05/04 06:21:26;;;;;;;22.65;18.58;;;;;;;10.32;100.00;93304.84;5129044;27;20574;-72
2023/05/04 06:23:52;;;;;;;18.95;15.38;;;;;;;10.22;100.00;93313.75;5129308;27;20046;-72
2023/05/04 06:26:20;;;;;;;16.38;13.80;;;;;;;9.97;100.00;93305.97;5129406;27;20051;-72
2023/05/04 06:28:48;;;;;;;17.67;14.38;;;;;;;9.98;100.00;93308.31;5129529;27;20061;-72
2023/05/04 06:31:15;;;;;;;16.85;13.43;;;;;;;10.00;100.00;93306.34;5129047;27;20088;-72
2023/05/04 06:33:42;;;;;;;18.23;14.27;;;;;;;9.99;100.00;93299.63;5128879;27;20039;-72
2023/05/04 06:36:09;;;;;;;16.17;13.70;;;;;;;9.96;100.00;93291.56;5129231;27;20039;-72
2023/05/04 06:38:36;;;;;;;19.80;16.13;;;;;;;10.01;100.00;93300.22;5128701;27;20509;-71
2023/05/04 06:41:02;;;;;;;18.25;14.43;;;;;;;10.07;100.00;93305.50;5129104;27;20047;-72
2023/05/04 06:43:29;;;;;;;15.23;13.52;;;;;;;10.20;100.00;93309.81;5128587;27;20042;-72
2023/05/04 06:46:01;;;;;;;14.15;12.30;;;;;;;10.18;100.00;93310.00;5128740;27;20054;-72
2023/05/04 06:48:28;;;;;;;17.95;12.93;;;;;;;10.27;100.00;93306.22;5128904;27;20076;-72
2023/05/04 06:50:55;;;;;;;16.17;13.10;;;;;;;10.37;100.00;93305.78;5128464;27;20058;-72
2023/05/04 06:53:22;;;;;;;14.77;12.38;;;;;;;10.44;100.00;93313.47;5128755;27;20051;-72
2023/05/04 06:55:49;;;;;;;14.43;11.35;;;;;;;10.41;100.00;93306.94;5128614;27;20071;-72
2023/05/04 06:58:17;;;;;;;18.80;11.35;;;;;;;10.46;100.00;93308.16;5128569;27;20069;-72
2023/05/04 07:00:44;;;;;;;12.57;10.02;;;;;;;10.53;100.00;93316.59;5128535;27;20047;-72
2023/05/04 07:03:13;;;;;;;13.50;9.70;;;;;;;10.29;100.00;93316.28;5128634;27;20051;-72
2023/05/04 07:05:39;;;;;;;15.05;9.65;;;;;;;10.24;100.00;93301.50;5128019;27;20871;-72
2023/05/04 07:08:06;;;;;;;11.32;8.35;;;;;;;10.28;100.00;93305.22;5128610;27;20039;-72
2023/05/04 07:10:33;;;;;;;9.63;7.38;;;;;;;10.05;100.00;93308.31;5125456;27;20095;-72
2023/05/04 07:13:00;;;;;;;14.73;9.70;;;;;;;9.97;100.00;93303.38;5128664;27;20051;-72
2023/05/04 07:15:27;;;;;;;16.05;11.65;;;;;;;9.99;100.00;93301.41;5127570;27;20136;-72
2023/05/04 07:17:54;;;;;;;20.02;13.52;;;;;;;10.00;100.00;93311.47;5126742;27;20047;-72
2023/05/04 07:20:22;;;;;;;24.45;16.52;;;;;;;10.00;100.00;93308.13;5122189;27;20487;-72
2023/05/04 07:22:49;;;;;;;30.25;18.83;;;;;;;9.98;100.00;93313.47;5128442;27;20039;-72
2023/05/04 07:25:16;;;;;;;17.00;11.82;;;;;;;9.99;100.00;93309.09;5127701;27;20043;-72
2023/05/04 07:27:43;;;;;;;11.75;9.95;;;;;;;9.97;100.00;93319.59;5128299;27;20133;-72
2023/05/04 07:30:11;;;;;;;15.82;12.15;;;;;;;9.82;100.00;93316.47;5128126;27;20506;-71
2023/05/04 07:32:37;;;;;;;14.20;11.40;;;;;;;9.77;100.00;93311.97;5125992;27;20047;-71
2023/05/04 07:35:05;;;;;;;14.95;11.85;;;;;;;9.81;100.00;93317.47;5105005;27;20044;-72
2023/05/04 07:37:33;;;;;;;20.58;14.43;;;;;;;9.76;100.00;93313.72;5127796;27;20050;-72
2023/05/04 07:40:00;;;;;;;30.48;19.63;;;;;;;9.81;100.00;93317.47;5127588;28;20510;-72
2023/05/04 07:42:28;;;;;;;29.17;19.38;;;;;;;9.83;100.00;93318.03;5128033;28;20084;-72
2023/05/04 07:44:55;;;;;;;16.38;11.48;;;;;;;9.74;100.00;93310.59;5125858;28;20047;-72
2023/05/04 07:47:22;;;;;;;14.13;11.73;;;;;;;9.76;100.00;93315.50;5127466;28;20040;-72
2023/05/04 07:49:48;;;;;;;15.30;11.10;;;;;;;9.71;100.00;93321.22;5127844;28;20070;-72
2023/05/04 07:52:15;;;;;;;15.90;11.23;;;;;;;9.64;100.00;93323.03;5128458;28;20050;-72
2023/05/04 07:54:43;;;;;;;12.98;10.68;;;;;;;9.73;100.00;93323.59;5127791;28;20108;-72
2023/05/04 07:57:10;;;;;;;15.13;12.98;;;;;;;9.79;100.00;93327.91;5127911;28;20043;-72
2023/05/04 07:59:37;;;;;;;14.68;11.85;;;;;;;9.86;100.00;93333.81;5127411;28;20071;-72
2023/05/04 08:02:04;;;;;;;14.48;12.05;;;;;;;9.85;100.00;93337.38;5127168;28;20043;-72
2023/05/04 08:04:30;;;;;;;13.15;10.38;;;;;;;9.83;100.00;93341.13;5127904;28;20043;-72
2023/05/04 08:06:57;;;;;;;15.10;11.30;;;;;;;9.76;100.00;93344.50;5127486;28;20165;-72
2023/05/04 08:09:24;;;;;;;18.40;12.93;;;;;;;9.84;100.00;93330.69;5127268;28;20487;-72
2023/05/04 08:11:52;;;;;;;16.05;12.30;;;;;;;10.01;100.00;93341.25;5127840;28;20070;-72
2023/05/04 08:14:19;;;;;;;16.75;13.48;;;;;;;10.00;100.00;93349.97;5127643;28;20070;-72
2023/05/04 08:16:46;;;;;;;18.02;13.85;;;;;;;10.19;100.00;93351.88;5126852;28;20075;-72
2023/05/04 08:19:13;;;;;;;19.95;15.50;;;;;;;10.36;100.00;93347.06;5127988;28;20047;-72
2023/05/04 08:21:40;;;;;;;20.98;15.00;;;;;;;10.51;100.00;93344.28;5127229;28;20436;-72
2023/05/04 08:24:07;;;;;;;15.73;12.63;;;;;;;10.72;100.00;93353.44;5127810;28;20096;-72
2023/05/04 08:26:37;;;;;;;14.55;12.15;;;;;;;10.62;100.00;93347.97;5127856;27;20495;-72
2023/05/04 08:29:09;;;;;;;13.35;11.15;;;;;;;10.80;100.00;93342.13;5131569;27;20050;-73
2023/05/04 08:31:36;;;;;;;15.32;12.93;;;;;;;11.03;100.00;93351.06;5131021;27;20376;-72
2023/05/04 08:34:04;;;;;;;16.75;12.30;;;;;;;11.15;100.00;93354.53;5131146;27;20051;-72
2023/05/04 08:36:31;;;;;;;16.67;12.82;;;;;;;11.21;100.00;93351.13;5131510;27;20434;-72
2023/05/04 08:38:57;;;;;;;15.70;12.45;;;;;;;11.40;100.00;93352.97;5131365;27;20055;-72
2023/05/04 08:41:24;;;;;;;18.85;14.43;;;;;;;11.57;100.00;93348.09;5130670;27;20047;-72
2023/05/04 08:43:52;;;;;;;19.73;14.07;;;;;;;11.77;100.00;93355.63;5131256;27;20051;-72
2023/05/04 08:46:20;;;;;;;18.17;12.55;;;;;;;11.83;100.00;93362.47;5130373;27;20046;-72
2023/05/04 08:48:47;;;;;;;17.42;13.13;;;;;;;12.02;100.00;93357.34;5131035;27;20047;-72
2023/05/04 08:51:14;;;;;;;17.05;13.57;;;;;;;12.31;100.00;93352.47;5130867;27;20051;-73
2023/05/04 08:53:45;;;;;;;22.35;15.43;;;;;;;12.55;100.00;93358.53;5130954;27;20116;-73
2023/05/04 08:56:15;;;;;;;17.30;14.20;;;;;;;12.90;100.00;93358.88;5131240;27;20134;-73
2023/05/04 08:58:48;;;;;;;16.70;12.43;;;;;;;12.93;100.00;93373.91;5130736;27;20163;-73
2023/05/04 09:01:16;;;;;;;18.95;12.95;;;;;;;13.12;100.00;93360.94;5131233;27;20427;-73
2023/05/04 09:03:46;;;;;;;17.83;12.98;;;;;;;13.38;100.00;93359.75;5131010;27;20055;-73
2023/05/04 09:06:13;;;;;;;15.40;12.60;;;;;;;13.28;100.00;93351.78;5130679;27;20039;-73
2023/05/04 09:08:40;;;;;;;14.65;11.85;;;;;;;13.65;100.00;93359.34;5130845;27;20047;-73
2023/05/04 09:11:07;;;;;;;14.52;11.00;;;;;;;13.96;100.00;93361.78;5130551;27;20078;-73
2023/05/04 09:13:34;;;;;;;13.32;10.73;;;;;;;14.15;100.00;93354.69;5130245;27;20049;-73
2023/05/04 09:16:02;;;;;;;15.73;11.60;;;;;;;14.12;100.00;93361.09;5130140;27;20047;-72
2023/05/04 09:18:40;;;;;;;14.02;10.63;;;;;;;13.90;100.00;93368.66;5129718;27;20507;-73
2023/05/04 09:21:08;;;;;;;19.30;12.20;;;;;;;13.79;100.00;93359.91;5114932;27;20133;-72
2023/05/04 09:23:46;;;;;;;15.73;10.82;;;;;;;13.82;100.00;93361.25;5120663;27;20533;-72
2023/05/04 09:26:12;;;;;;;17.50;11.90;;;;;;;13.71;100.00;93358.44;5129608;27;20138;-72
2023/05/04 09:28:40;;;;;;;15.07;12.10;;;;;;;13.60;100.00;93359.22;5128927;27;20051;-72
2023/05/04 09:31:07;;;;;;;15.88;11.32;;;;;;;13.93;100.00;93357.88;5129845;27;20044;-72
2023/05/04 09:33:34;;;;;;;15.13;11.65;;;;;;;13.88;100.00;93358.56;5130085;27;20084;-72
2023/05/04 09:36:14;;;;;;;14.43;9.85;;;;;;;14.16;100.00;93353.66;5130340;27;20086;-72
2023/05/04 09:38:41;;;;;;;15.07;10.60;;;;;;;13.91;100.00;93359.91;5129357;27;20096;-72
2023/05/04 09:41:08;;;;;;;13.68;11.05;;;;;;;13.50;100.00;93362.38;5130650;27;20395;-72
2023/05/04 09:43:39;;;;;;;21.02;12.30;;;;;;;13.22;100.00;93354.25;5125852;27;20078;-72
2023/05/04 09:46:07;;;;;;;21.50;15.02;;;;;;;13.33;100.00;93359.66;5129751;27;20615;-72
2023/05/04 09:48:35;;;;;;;16.90;12.07;;;;;;;13.41;100.00;93363.66;5129174;27;20531;-72
2023/05/04 09:51:05;;;;;;;14.95;11.35;;;;;;;13.43;100.00;93356.50;5129800;27;20067;-72
2023/05/04 09:53:37;;;;;;;16.10;11.77;;;;;;;13.44;100.00;93360.66;5129777;27;20126;-72
2023/05/04 09:56:10;;;;;;;13.25;9.88;;;;;;;13.52;100.00;93362.91;5130034;27;20078;-72
2023/05/04 09:58:37;;;;;;;14.27;10.45;;;;;;;13.60;100.00;93349.69;5115405;27;20173;-72
2023/05/04 10:01:04;;;;;;;13.13;10.07;;;;;;;13.60;100.00;93346.31;5115853;27;20057;-72
2023/05/04 10:03:32;;;;;;;14.93;11.52;;;;;;;13.57;100.00;93329.47;5129115;27;20112;-72
2023/05/04 10:05:59;;;;;;;14.15;10.85;;;;;;;13.60;100.00;93348.91;5129850;27;20134;-72
2023/05/04 10:08:28;;;;;;;16.13;10.73;;;;;;;13.55;100.00;93333.31;5108436;27;20054;-72
2023/05/04 10:10:57;;;;;;;15.73;11.73;;;;;;;13.41;100.00;93340.44;5117800;27;20090;-72
2023/05/04 10:13:24;;;;;;;15.20;10.80;;;;;;;12.94;100.00;93342.75;5107294;27;20047;-72
2023/05/04 10:16:02;;;;;;;17.27;13.63;;;;;;;12.94;100.00;93329.06;5128971;27;20060;-72
2023/05/04 10:21:31;;;;;;;15.45;12.13;;;;;;;13.54;100.00;93342.06;5128578;27;20478;-72
2023/05/04 10:24:33;;;;;;;16.48;12.13;;;;;;;13.48;100.00;93330.84;5129069;27;20047;-71
2023/05/04 10:27:10;;;;;;;15.73;12.20;;;;;;;13.60;100.00;93329.06;5128075;27;20047;-71
2023/05/04 10:29:39;;;;;;;14.95;11.55;;;;;;;13.88;100.00;93330.16;5129317;27;20852;-71
2023/05/04 10:32:16;;;;;;;22.63;13.15;;;;;;;14.01;100.00;93333.50;5120079;27;20047;-71
2023/05/04 10:34:44;;;;;;;20.10;11.18;;;;;;;13.69;100.00;93336.44;5127130;27;20043;-71
2023/05/04 10:37:16;;;;;;;21.77;11.40;;;;;;;13.62;100.00;93327.03;5129112;27;20051;-72
2023/05/04 10:39:52;;;;;;;14.32;9.52;;;;;;;13.55;100.00;93341.03;5122293;27;20050;-71
2023/05/04 10:42:20;;;;;;;13.57;10.93;;;;;;;13.71;100.00;93327.47;5127638;27;20059;-71
2023/05/04 10:44:52;;;;;;;13.50;9.85;;;;;;;13.44;100.00;93319.38;5128744;27;20039;-71
2023/05/04 10:47:28;;;;;;;12.70;10.25;;;;;;;13.15;100.00;93314.09;5128719;27;20473;-71
2023/05/04 10:50:01;;;;;;;17.33;12.50;;;;;;;13.36;100.00;93334.19;5128415;27;20051;-71
2023/05/04 10:52:28;;;;;;;15.43;12.75;;;;;;;13.40;100.00;93337.09;5128345;27;20058;-71
2023/05/04 10:54:59;;;;;;;18.10;11.82;;;;;;;13.16;100.00;93328.56;5128593;27;20051;-71
2023/05/04 10:57:29;;;;;;;14.40;11.55;;;;;;;13.45;100.00;93324.31;5128800;27;20043;-71
2023/05/04 10:59:57;;;;;;;14.68;11.18;;;;;;;13.74;100.00;93326.22;5128491;27;20055;-71
2023/05/04 11:02:25;;;;;;;11.25;10.05;;;;;;;13.64;100.00;93331.97;5128540;27;20050;-71
2023/05/04 11:05:02;;;;;;;13.35;10.32;;;;;;;13.72;100.00;93321.31;5128777;27;20415;-71
2023/05/04 11:07:34;;;;;;;10.68;9.18;;;;;;;13.81;100.00;93323.53;5128345;27;20043;-72
2023/05/04 11:10:02;;;;;;;13.68;10.80;;;;;;;14.00;100.00;93331.94;5128070;27;20043;-71
2023/05/04 11:12:30;;;;;;;14.98;10.90;;;;;;;14.24;100.00;93326.69;5128702;27;20053;-71
2023/05/04 11:15:04;;;;;;;12.48;10.63;;;;;;;14.70;100.00;93321.59;5114874;27;20627;-71
2023/05/04 11:17:31;;;;;;;12.77;9.80;;;;;;;15.04;100.00;93326.84;5110221;27;20055;-72